Buzuluk, Russia
Current Conditions -  °F | °C
As of 1:00 AM on Monday 22 Dec 2014 (Local Time) from UWWW Reporting Station
Clear Clear  
Wind Chill: 19°   Ceiling: Unl
Heat Index: 28°   Visibility: 6mi
Dew Point: 27°   Wind: 11mph
Humidity: 93%   Direction: 200°SSW
Pressure: 29.8"   Gusts: NA
Location:  52.78°N, 52.26°E
Report Text: UWWW 212000Z 20005MPS CAVOK M02/M03 Q1009 23350140 15//99//NOSIG RMK QFE745/0994
Loading
Personal Weather Stations






























Interactive Weather Map New forecast layout! Learn more

10-Day Weather Forecast

Advertisements
Track Severe Weather on mobile